Carcassonne Airport

Airport
ICAO code: 
LFMK
IATA Code: 
CCF
Summary
ICAO Region: 
EUR
Territory: 
Location: 
, Languedoc-Roussillon
Serving: 
Carcassonne
Elevation: 
433 ft
Coordinates: 
Aerial View: 
43° 12' 57.521" N, 2° 18' 22.741" E
Metar
Observation
LFMK 060530Z AUTO 28017KT 9999 BKN021 BKN033 BKN044 06/04 Q1017 BECMG 28018G30KT
Station
Carcassonne
Date/Time
2021-12-06 05:30:00
Wind direction
280°
Wind speed
17 kts
Lowest cloud amount
broken clouds
Temperature
6°C
Dew point
4°C
Humidity
86%
QNH
1017 hPa
Weather condition
n/a

Runways

Designator Length Width Surface Rops
10/28 2050 45 ASP Yes/Yes
Airport map: 
Aerial View: 

SKYbrary Partners:

Safety knowledge contributed by: